Time;durP1;ratioP1;P1;durP2;ratioP2;P2;SDS_P1;SDS_P2;PMS_P1;PMS_P2;Temp;Humidity;BMP_temperature;BMP_pressure;BME280_temperature;BME280_humidity;BME280_pressure;Samples;Min_cycle;Max_cycle;Signal;HPM_P1;HPM_P2
2023/12/22 00:04:49;;;;;;;12.20;2.72;;;;;;;18.46;36.27;100361.53;16104467;19;130251;-58
2023/12/22 00:10:11;;;;;;;8.25;2.42;;;;;;;18.38;36.44;100386.88;16106660;19;129917;-58
2023/12/22 00:15:33;;;;;;;14.45;2.90;;;;;;;18.33;36.55;100373.81;16106647;19;130438;-57
2023/12/22 00:20:55;;;;;;;7.43;2.50;;;;;;;18.28;36.21;100371.78;16106664;19;131814;-57
2023/12/22 00:26:17;;;;;;;8.95;2.63;;;;;;;18.22;36.20;100375.59;16107197;19;130081;-58
2023/12/22 00:31:39;;;;;;;8.57;2.45;;;;;;;18.20;36.17;100376.97;16105936;19;129412;-58
2023/12/22 00:37:01;;;;;;;10.52;2.53;;;;;;;18.15;36.28;100411.78;16106697;19;130732;-58
2023/12/22 00:42:23;;;;;;;7.50;2.53;;;;;;;18.10;36.36;100408.94;16112149;19;129815;-57
2023/12/22 00:47:45;;;;;;;9.57;2.50;;;;;;;18.07;36.50;100392.84;16115660;19;130408;-57
2023/12/22 00:53:07;;;;;;;11.07;2.63;;;;;;;18.06;36.46;100402.25;16122703;19;129601;-58
2023/12/22 00:58:30;;;;;;;9.68;2.40;;;;;;;18.02;36.37;100411.31;16121484;19;129423;-56
2023/12/22 01:03:52;;;;;;;11.90;2.60;;;;;;;17.96;36.46;100418.72;16124352;19;130318;-60
2023/12/22 01:09:14;;;;;;;12.20;2.95;;;;;;;17.91;36.03;100430.53;16120108;19;131466;-57
2023/12/22 01:14:36;;;;;;;8.05;2.22;;;;;;;17.89;36.27;100423.56;16121311;19;130600;-58
2023/12/22 01:19:58;;;;;;;9.75;2.67;;;;;;;17.85;36.27;100432.38;16117909;19;131387;-58
2023/12/22 01:25:21;;;;;;;10.57;2.42;;;;;;;17.83;36.31;100426.28;16121331;19;131101;-55
2023/12/22 01:30:43;;;;;;;10.82;2.67;;;;;;;17.80;36.20;100437.84;16118731;19;129757;-56
2023/12/22 01:36:05;;;;;;;11.02;2.75;;;;;;;17.77;36.28;100443.88;16117172;19;129754;-56
2023/12/22 01:41:27;;;;;;;7.55;2.30;;;;;;;17.74;36.01;100433.31;16118660;19;130457;-58
2023/12/22 01:46:50;;;;;;;10.00;2.58;;;;;;;17.74;36.30;100454.63;16117699;19;130115;-58
2023/12/22 01:52:12;;;;;;;13.77;2.72;;;;;;;17.72;36.09;100468.72;16115207;19;129850;-57
2023/12/22 01:57:35;;;;;;;9.85;3.17;;;;;;;17.70;36.23;100465.34;16118956;19;129694;-56
2023/12/22 02:02:57;;;;;;;11.90;2.28;;;;;;;17.69;36.23;100469.22;16115539;19;129348;-56
2023/12/22 02:08:21;;;;;;;9.98;2.60;;;;;;;17.65;36.57;100470.78;16115160;19;129423;-58
2023/12/22 02:13:44;;;;;;;10.60;3.05;;;;;;;17.63;36.58;100492.31;16114802;19;129520;-58
2023/12/22 02:19:42;;;;;;;8.60;2.60;;;;;;;17.62;36.53;100496.19;16116270;19;129095;-58
2023/12/22 02:25:04;;;;;;;9.63;2.70;;;;;;;17.59;36.56;100480.09;16112201;19;129636;-56
2023/12/22 02:30:41;;;;;;;8.30;2.13;;;;;;;17.59;36.27;100480.09;16117885;19;130138;-58
2023/12/22 02:36:06;;;;;;;8.90;2.63;;;;;;;17.54;36.61;100487.22;16115476;19;129383;-57
2023/12/22 02:41:28;;;;;;;9.63;2.13;;;;;;;17.53;36.51;100492.97;16115142;19;130774;-57
2023/12/22 02:46:50;;;;;;;10.65;2.72;;;;;;;17.52;36.26;100483.81;16112103;19;131306;-58
2023/12/22 02:52:12;;;;;;;13.15;2.90;;;;;;;17.50;36.44;100477.69;16114786;19;131239;-59
2023/12/22 02:57:35;;;;;;;8.02;2.40;;;;;;;17.48;36.40;100467.97;16112833;19;130011;-57
2023/12/22 03:02:56;;;;;;;12.05;2.72;;;;;;;17.47;36.58;100461.63;16110822;19;129650;-56
2023/12/22 03:08:18;;;;;;;9.68;2.78;;;;;;;17.45;36.40;100461.03;16114696;19;129638;-57
2023/12/22 03:13:40;;;;;;;7.30;2.05;;;;;;;17.44;36.64;100492.53;16114646;19;129473;-57
2023/12/22 03:19:02;;;;;;;12.20;2.67;;;;;;;17.44;36.59;100488.91;16112931;19;130022;-57
2023/12/22 03:24:25;;;;;;;10.43;2.63;;;;;;;17.42;36.44;100480.88;16114376;19;130034;-55
2023/12/22 03:29:50;;;;;;;11.85;2.90;;;;;;;17.39;36.21;100476.69;16111957;19;129800;-57
2023/12/22 03:35:12;;;;;;;7.70;2.33;;;;;;;17.38;36.70;100469.47;16110081;19;130467;-57
2023/12/22 03:40:34;;;;;;;11.23;2.70;;;;;;;17.38;36.63;100463.09;16110466;19;130839;-57
2023/12/22 03:45:57;;;;;;;10.07;2.97;;;;;;;17.37;36.75;100489.06;16113699;19;129631;-59
2023/12/22 03:51:19;;;;;;;8.23;2.53;;;;;;;17.35;36.42;100481.03;16112885;19;131404;-57
2023/12/22 03:56:41;;;;;;;12.48;2.42;;;;;;;17.35;36.75;100494.03;16111854;19;131331;-58
2023/12/22 04:02:03;;;;;;;8.77;2.20;;;;;;;17.35;36.47;100505.09;16113176;19;131109;-57
2023/12/22 04:07:25;;;;;;;9.02;2.35;;;;;;;17.33;36.46;100498.97;16111808;19;130466;-58
2023/12/22 04:12:47;;;;;;;14.88;3.38;;;;;;;17.31;36.60;100495.59;16108786;19;130642;-55
2023/12/22 04:18:09;;;;;;;10.93;3.05;;;;;;;17.30;36.73;100499.47;16111105;19;130415;-57
2023/12/22 04:23:31;;;;;;;7.70;2.38;;;;;;;17.30;36.74;100514.09;16125527;19;131472;-57
2023/12/22 04:28:53;;;;;;;10.38;2.78;;;;;;;17.29;36.51;100519.91;16126286;19;130481;-57
2023/12/22 04:34:15;;;;;;;13.88;2.92;;;;;;;17.28;36.85;100520.97;16123399;19;130696;-58
2023/12/22 04:39:37;;;;;;;12.40;2.80;;;;;;;17.26;36.87;100520.38;16127800;19;130184;-58
2023/12/22 04:44:59;;;;;;;9.23;2.35;;;;;;;17.24;36.89;100510.41;16127706;19;129234;-57
2023/12/22 04:50:21;;;;;;;11.70;2.80;;;;;;;17.24;36.73;100509.59;16125886;19;130585;-59
2023/12/22 04:55:43;;;;;;;11.05;3.05;;;;;;;17.22;36.61;100512.59;16123048;19;130988;-57
2023/12/22 05:01:05;;;;;;;10.30;3.05;;;;;;;17.22;37.00;100520.91;16122726;19;130939;-57
2023/12/22 05:06:28;;;;;;;11.15;2.95;;;;;;;17.22;36.82;100518.13;16123992;19;130407;-57
2023/12/22 05:11:50;;;;;;;12.38;3.08;;;;;;;17.21;36.82;100512.84;16127427;19;131385;-58
2023/12/22 05:17:13;;;;;;;11.57;2.95;;;;;;;17.20;36.71;100505.63;16121876;19;129687;-53
2023/12/22 05:22:37;;;;;;;10.77;2.80;;;;;;;17.20;36.96;100511.16;16122977;19;129098;-56
2023/12/22 05:27:59;;;;;;;10.88;2.55;;;;;;;17.19;37.28;100520.53;16123836;19;130109;-58
2023/12/22 05:33:20;;;;;;;8.98;2.53;;;;;;;17.19;37.19;100531.59;16118593;19;131198;-57
2023/12/22 05:38:42;;;;;;;13.07;3.28;;;;;;;17.18;37.09;100530.75;16121083;19;130513;-58
2023/12/22 05:44:05;;;;;;;8.48;2.70;;;;;;;17.18;37.30;100525.22;16122155;19;130315;-57
2023/12/22 05:49:27;;;;;;;10.45;2.45;;;;;;;17.16;37.16;100521.88;16120837;19;131480;-58
2023/12/22 05:54:50;;;;;;;12.00;2.78;;;;;;;17.16;37.11;100519.09;16120519;19;130729;-58
2023/12/22 06:00:15;;;;;;;11.52;2.70;;;;;;;17.14;37.33;100517.69;16120123;19;130338;-58
2023/12/22 06:05:37;;;;;;;10.93;3.08;;;;;;;17.13;37.17;100511.28;16117471;19;130185;-57
2023/12/22 06:10:59;;;;;;;6.95;2.47;;;;;;;17.15;37.43;100502.78;16117483;19;130417;-56
2023/12/22 06:16:22;;;;;;;12.23;3.35;;;;;;;17.13;37.33;100511.28;16118686;19;130702;-57
2023/12/22 06:21:44;;;;;;;15.60;3.20;;;;;;;17.16;37.31;100521.03;16121856;19;130659;-59
2023/12/22 06:27:06;;;;;;;10.05;2.75;;;;;;;17.16;37.17;100508.03;16117393;19;130312;-59
2023/12/22 06:32:28;;;;;;;10.95;3.28;;;;;;;17.15;37.58;100511.91;16116350;19;129513;-58
2023/12/22 06:37:51;;;;;;;10.45;2.53;;;;;;;17.15;37.43;100517.44;16118621;19;129963;-59
2023/12/22 06:43:14;;;;;;;12.02;2.45;;;;;;;17.15;37.25;100516.59;16112815;19;128927;-59
2023/12/22 06:48:37;;;;;;;11.75;2.63;;;;;;;17.13;37.35;100508.53;16113649;19;130950;-56
2023/12/22 06:54:02;;;;;;;19.13;3.15;;;;;;;17.14;37.48;100524.03;16112093;19;130592;-59
2023/12/22 06:59:24;;;;;;;8.77;2.50;;;;;;;17.13;37.44;100527.88;16116082;19;131560;-59
2023/12/22 07:05:09;;;;;;;13.10;3.28;;;;;;;17.14;37.97;100524.03;16114596;19;130147;-59
2023/12/22 07:10:31;;;;;;;13.27;3.35;;;;;;;17.09;37.61;100521.19;16116955;19;129318;-59
2023/12/22 07:15:53;;;;;;;9.32;2.47;;;;;;;17.08;37.64;100513.97;16114253;19;130912;-59
2023/12/22 07:21:17;;;;;;;10.85;2.72;;;;;;;17.06;37.79;100518.91;16113677;19;130773;-60
2023/12/22 07:26:39;;;;;;;16.63;2.72;;;;;;;17.05;37.60;100520.81;16114568;19;131949;-60
2023/12/22 07:32:05;;;;;;;10.20;2.77;;;;;;;17.06;37.70;100524.44;16112037;19;131516;-59
2023/12/22 07:37:27;;;;;;;8.77;2.38;;;;;;;17.04;37.69;100527.44;16112755;19;129505;-62
2023/12/22 07:42:50;;;;;;;10.68;2.85;;;;;;;17.03;37.59;100520.25;16119019;19;129599;-59
2023/12/22 07:48:13;;;;;;;9.48;2.47;;;;;;;17.03;38.18;100522.16;16113325;19;130156;-59
2023/12/22 07:53:35;;;;;;;11.48;2.60;;;;;;;17.01;38.04;100527.94;16117088;19;129741;-59
2023/12/22 07:58:57;;;;;;;10.90;2.85;;;;;;;17.01;37.84;100538.13;16111193;19;129914;-59
2023/12/22 08:04:39;;;;;;;6.10;2.13;;;;;;;17.00;38.21;100533.69;16113171;19;130633;-60
2023/12/22 08:10:02;;;;;;;7.78;2.08;;;;;;;16.98;37.93;100531.19;16113971;19;130542;-60
2023/12/22 08:15:24;;;;;;;7.40;2.05;;;;;;;16.97;37.91;100518.44;16112301;19;130462;-60
2023/12/22 08:20:57;;;;;;;11.25;1.92;;;;;;;16.96;38.01;100527.81;16112182;19;130086;-62
2023/12/22 08:26:19;;;;;;;7.72;2.03;;;;;;;16.97;37.98;100523.16;16121328;19;129956;-62
2023/12/22 08:31:41;;;;;;;7.55;2.35;;;;;;;16.96;38.22;100515.94;16117837;19;129240;-62
2023/12/22 08:37:03;;;;;;;6.97;1.88;;;;;;;16.92;38.10;100494.31;16116473;19;129566;-61
2023/12/22 08:42:25;;;;;;;7.60;2.28;;;;;;;16.92;38.19;100505.38;16117960;19;129378;-61
2023/12/22 08:47:47;;;;;;;6.90;2.15;;;;;;;16.91;38.52;100489.88;16119549;19;129675;-60
2023/12/22 08:53:10;;;;;;;8.15;2.00;;;;;;;16.91;38.24;100492.63;16115373;19;130831;-62
2023/12/22 08:58:32;;;;;;;7.35;2.13;;;;;;;16.90;38.45;100490.13;16111380;19;129269;-61
2023/12/22 09:03:54;;;;;;;7.13;1.83;;;;;;;16.90;38.48;100499.25;16113371;19;132374;-61
2023/12/22 09:09:16;;;;;;;4.45;1.73;;;;;;;16.89;38.24;100483.75;16126556;19;131425;-63
2023/12/22 09:14:38;;;;;;;6.82;2.00;;;;;;;16.88;38.71;100487.59;16126963;19;129384;-60
2023/12/22 09:20:00;;;;;;;3.92;1.65;;;;;;;16.88;38.36;100492.28;16121644;19;130889;-60
2023/12/22 09:25:24;;;;;;;4.30;1.52;;;;;;;16.86;38.76;100489.75;16121498;19;131781;-60
2023/12/22 09:30:46;;;;;;;5.53;1.60;;;;;;;16.86;38.93;100486.16;16120069;19;129675;-60
2023/12/22 09:36:09;;;;;;;5.13;1.58;;;;;;;16.86;38.85;100495.28;16122125;19;129403;-61
2023/12/22 09:41:31;;;;;;;4.97;1.55;;;;;;;16.87;38.86;100493.38;16124639;19;133591;-59
2023/12/22 09:46:54;;;;;;;5.63;1.60;;;;;;;16.86;38.94;100495.28;16123948;19;130663;-60
2023/12/22 09:52:17;;;;;;;6.47;1.48;;;;;;;16.85;38.80;100499.16;16120823;19;129727;-59
2023/12/22 09:57:39;;;;;;;4.65;1.58;;;;;;;16.84;38.79;100486.44;16118511;19;129643;-59
2023/12/22 10:03:02;;;;;;;3.22;1.30;;;;;;;16.83;38.73;100489.41;16119931;19;130032;-59
2023/12/22 10:08:26;;;;;;;4.85;1.33;;;;;;;16.82;38.86;100496.03;16118516;19;129494;-59
2023/12/22 10:13:52;;;;;;;4.30;1.45;;;;;;;16.80;39.04;100496.28;16118207;19;131267;-58
2023/12/22 10:19:15;;;;;;;4.15;1.50;;;;;;;16.80;38.75;100507.31;16118318;19;131282;-62
2023/12/22 10:24:47;;;;;;;2.40;1.10;;;;;;;16.80;38.76;100490.75;16118717;19;130047;-60
2023/12/22 10:30:10;;;;;;;2.88;1.10;;;;;;;16.81;38.99;100506.25;16118113;19;129831;-59
2023/12/22 10:35:32;;;;;;;4.53;1.30;;;;;;;16.80;38.85;100498.22;16116433;19;129697;-60
2023/12/22 10:40:54;;;;;;;5.43;1.38;;;;;;;16.78;39.08;100503.97;16115575;19;130912;-59
2023/12/22 10:46:16;;;;;;;2.33;1.08;;;;;;;16.75;38.93;100493.41;16117628;19;129933;-60
2023/12/22 10:51:38;;;;;;;4.63;1.23;;;;;;;16.75;38.98;100499.78;16113269;19;129641;-59
2023/12/22 10:57:00;;;;;;;2.80;1.02;;;;;;;16.75;39.40;100501.69;16116593;19;129635;-59
2023/12/22 11:02:22;;;;;;;2.33;1.00;;;;;;;16.75;39.03;100501.69;16114743;19;131163;-60
2023/12/22 11:07:49;;;;;;;2.38;0.85;;;;;;;16.75;39.12;100501.69;16112546;19;129841;-60
2023/12/22 11:13:13;;;;;;;3.33;0.88;;;;;;;16.73;39.22;100514.94;16114502;19;130214;-59
2023/12/22 11:18:36;;;;;;;3.78;1.20;;;;;;;16.73;39.34;100498.34;16116179;19;129566;-59
2023/12/22 11:24:00;;;;;;;3.40;1.00;;;;;;;16.73;39.22;100501.13;16113990;19;130004;-59
2023/12/22 11:29:24;;;;;;;3.95;1.45;;;;;;;16.73;39.37;100490.06;16113531;19;130947;-59
2023/12/22 11:34:47;;;;;;;4.57;1.10;;;;;;;16.71;39.52;100479.25;16113402;19;129761;-59
2023/12/22 11:40:10;;;;;;;4.15;0.90;;;;;;;16.71;39.46;100483.94;16112948;19;130464;-60
2023/12/22 11:45:32;;;;;;;3.83;1.20;;;;;;;16.70;39.40;100469.28;16112757;19;130166;-59
2023/12/22 11:50:55;;;;;;;4.05;0.93;;;;;;;16.69;39.27;100472.28;16114093;19;130439;-59
2023/12/22 11:56:18;;;;;;;2.63;1.00;;;;;;;16.69;39.61;100477.81;16114752;19;129865;-60
2023/12/22 12:01:40;;;;;;;4.30;1.33;;;;;;;16.69;39.53;100488.84;16112870;19;130095;-59
2023/12/22 12:07:40;;;;;;;3.47;0.88;;;;;;;16.69;39.21;100484.16;16110941;19;129608;-60
2023/12/22 12:13:06;;;;;;;3.05;0.93;;;;;;;16.70;39.61;100493.31;16110094;19;129601;-59
2023/12/22 12:18:29;;;;;;;4.35;1.38;;;;;;;16.67;39.39;100480.81;16110468;19;129709;-58
2023/12/22 12:23:51;;;;;;;3.25;1.00;;;;;;;16.67;39.51;100474.44;16114111;19;130357;-58
2023/12/22 12:29:14;;;;;;;3.88;0.90;;;;;;;16.68;39.65;100470.59;16112376;19;132257;-56
2023/12/22 12:34:36;;;;;;;3.50;1.13;;;;;;;16.68;39.24;100459.56;16107653;19;131812;-58
2023/12/22 12:40:00;;;;;;;3.95;1.05;;;;;;;16.65;39.80;100463.63;16115345;19;130288;-58
2023/12/22 12:45:26;;;;;;;5.05;0.68;;;;;;;16.65;39.36;100462.78;16122635;19;130278;-59
2023/12/22 12:50:48;;;;;;;4.63;1.33;;;;;;;16.62;39.43;100459.41;16127256;19;129492;-60
2023/12/22 12:56:10;;;;;;;2.83;0.80;;;;;;;16.61;39.88;100474.31;16130046;19;130587;-59
2023/12/22 13:01:37;;;;;;;2.42;0.73;;;;;;;16.63;39.70;100469.38;16123403;19;129105;-59
2023/12/22 13:06:59;;;;;;;4.47;0.77;;;;;;;16.63;39.74;100463.84;16123966;19;129994;-60
2023/12/22 13:12:22;;;;;;;2.70;0.70;;;;;;;16.62;39.53;100462.16;16122219;19;130709;-58
2023/12/22 13:17:45;;;;;;;3.45;0.82;;;;;;;16.65;39.74;100471.91;16122318;19;129886;-59
2023/12/22 13:23:07;;;;;;;4.22;1.10;;;;;;;16.63;39.53;100466.63;16124222;19;130732;-57
2023/12/22 13:28:29;;;;;;;3.22;0.88;;;;;;;16.61;39.42;100468.81;16121897;19;129647;-63
2023/12/22 13:33:51;;;;;;;3.78;0.80;;;;;;;16.60;39.42;100475.41;16117827;19;130804;-61
2023/12/22 13:39:14;;;;;;;3.85;0.88;;;;;;;16.59;39.45;100487.53;16120621;19;130043;-62
2023/12/22 13:44:46;;;;;;;3.42;0.90;;;;;;;16.59;39.45;100479.25;16121906;19;129959;-62
2023/12/22 13:50:18;;;;;;;3.33;0.80;;;;;;;16.59;39.53;100478.41;16121877;19;130343;-60
2023/12/22 13:55:40;;;;;;;4.35;0.85;;;;;;;16.57;39.70;100481.41;16118580;19;129798;-62
2023/12/22 14:01:14;;;;;;;3.90;0.75;;;;;;;16.57;39.83;100481.41;16120614;19;131355;-59
2023/12/22 14:06:37;;;;;;;3.28;1.00;;;;;;;16.56;39.57;100487.16;16120394;19;132610;-60
2023/12/22 14:11:59;;;;;;;3.63;1.10;;;;;;;16.56;39.61;100490.78;16121830;19;130560;-60
2023/12/22 14:17:29;;;;;;;2.38;0.88;;;;;;;16.54;39.84;100509.50;16126348;19;130371;-61
2023/12/22 14:22:53;;;;;;;3.53;0.80;;;;;;;16.55;39.48;100515.88;16117996;19;131089;-63
2023/12/22 14:28:15;;;;;;;4.30;0.90;;;;;;;16.56;39.42;100517.53;16122949;19;129732;-62
2023/12/22 14:33:37;;;;;;;3.38;1.23;;;;;;;16.53;39.63;100535.44;16118302;19;131053;-62
2023/12/22 14:38:59;;;;;;;3.83;1.02;;;;;;;16.51;39.73;100532.06;16116322;19;129310;-59
2023/12/22 14:44:21;;;;;;;2.95;0.80;;;;;;;16.51;39.50;100531.25;16115040;19;131376;-62
2023/12/22 14:49:43;;;;;;;3.53;0.85;;;;;;;16.52;39.52;100553.09;16115141;19;129701;-58
2023/12/22 14:55:06;;;;;;;3.40;0.88;;;;;;;16.52;39.79;100552.25;16114796;19;131037;-62
2023/12/22 15:00:28;;;;;;;4.65;1.10;;;;;;;16.50;39.52;100551.66;16118590;19;129321;-59
2023/12/22 15:05:51;;;;;;;5.00;1.13;;;;;;;16.48;39.64;100551.91;16115131;19;130876;-60
2023/12/22 15:11:13;;;;;;;3.70;0.85;;;;;;;16.49;39.83;100549.97;16115308;19;129944;-62
2023/12/22 15:16:44;;;;;;;3.22;0.90;;;;;;;16.49;39.46;100569.31;16115063;19;129559;-62
2023/12/22 15:22:06;;;;;;;5.50;0.90;;;;;;;16.46;39.90;100576.16;16111288;19;129802;-59
2023/12/22 15:27:29;;;;;;;2.75;0.77;;;;;;;16.47;39.51;100586.13;16112533;19;131319;-58
2023/12/22 15:32:51;;;;;;;5.45;1.00;;;;;;;16.45;39.42;100591.88;16115416;19;130491;-57
2023/12/22 15:38:14;;;;;;;4.13;1.45;;;;;;;16.45;39.61;100594.63;16117039;19;129485;-58
2023/12/22 15:43:36;;;;;;;5.30;1.08;;;;;;;16.46;39.86;100604.59;16113342;19;131187;-59
2023/12/22 15:48:58;;;;;;;3.53;1.00;;;;;;;16.45;39.39;100626.94;16113274;19;131869;-58
2023/12/22 15:54:20;;;;;;;4.97;1.13;;;;;;;16.46;39.74;100614.81;16107469;19;129727;-58
2023/12/22 15:59:42;;;;;;;9.05;1.50;;;;;;;16.54;39.81;100630.19;16106614;19;129313;-59
2023/12/22 16:05:04;;;;;;;5.65;0.98;;;;;;;16.70;39.94;100625.88;16111939;19;131337;-55
2023/12/22 16:10:26;;;;;;;3.33;0.70;;;;;;;16.92;39.80;100629.72;16111695;19;129760;-58
2023/12/22 16:15:48;;;;;;;4.28;1.05;;;;;;;17.21;39.21;100646.38;16111696;19;129614;-58
2023/12/22 16:21:11;;;;;;;5.68;0.85;;;;;;;17.49;39.16;100658.56;16127128;19;131119;-58
2023/12/22 16:26:33;;;;;;;5.03;0.88;;;;;;;17.76;38.63;100641.41;16128376;19;130671;-58
2023/12/22 16:31:55;;;;;;;3.92;1.20;;;;;;;18.02;38.68;100641.88;16126213;19;129813;-59
2023/12/22 16:37:18;;;;;;;2.28;0.68;;;;;;;18.19;38.08;100660.47;16120513;19;131100;-56
2023/12/22 16:42:41;;;;;;;4.57;0.95;;;;;;;18.30;38.04;100645.69;16118643;19;131156;-51
2023/12/22 16:48:03;;;;;;;4.68;0.90;;;;;;;18.38;37.84;100641.69;16124228;19;131874;-52
2023/12/22 16:53:26;;;;;;;3.60;0.98;;;;;;;18.42;37.74;100652.03;16122763;19;129732;-51
2023/12/22 16:58:48;;;;;;;5.68;1.15;;;;;;;18.48;37.84;100652.94;16124006;19;130021;-48
2023/12/22 17:04:10;;;;;;;3.88;0.95;;;;;;;18.49;38.41;100678.72;16122782;19;130819;-49
2023/12/22 17:09:33;;;;;;;3.65;1.10;;;;;;;18.49;38.49;100664.84;16119194;19;130562;-51
2023/12/22 17:14:55;;;;;;;5.03;0.90;;;;;;;18.46;38.16;100657.91;16122788;19;129871;-54
2023/12/22 17:20:17;;;;;;;3.55;0.95;;;;;;;18.44;38.22;100669.25;16121470;19;130139;-52
2023/12/22 17:25:39;;;;;;;4.97;1.10;;;;;;;18.38;37.85;100672.97;16100203;19;131464;-53
2023/12/22 17:31:16;;;;;;;12.98;2.33;;;;;;;18.33;37.77;100663.75;16116533;19;133068;-52
2023/12/22 17:36:38;;;;;;;9.48;2.33;;;;;;;18.32;37.93;100676.75;16116214;19;129210;-55
2023/12/22 17:42:00;;;;;;;4.25;1.63;;;;;;;18.38;37.98;100686.81;16121496;19;130375;-57
2023/12/22 17:47:23;;;;;;;5.03;1.40;;;;;;;18.52;37.67;100692.06;16119018;19;130947;-52
2023/12/22 17:52:44;;;;;;;7.55;1.70;;;;;;;18.73;37.55;100696.84;16114161;19;129927;-50
2023/12/22 17:58:07;;;;;;;4.80;1.52;;;;;;;18.96;36.91;100705.22;16119598;19;131506;-53
2023/12/22 18:03:29;;;;;;;4.93;1.40;;;;;;;19.16;36.50;100707.47;16118477;19;130086;-55
2023/12/22 18:08:51;;;;;;;4.20;1.77;;;;;;;19.36;36.59;100693.91;16118071;19;130534;-54
2023/12/22 18:14:13;;;;;;;2.65;0.95;;;;;;;19.55;36.00;100713.03;16113993;19;129691;-54
2023/12/22 18:19:35;;;;;;;5.68;1.40;;;;;;;19.78;35.81;100730.50;16114555;19;129506;-52
2023/12/22 18:24:57;;;;;;;5.70;1.52;;;;;;;19.96;35.74;100732.94;16116245;19;129748;-56
2023/12/22 18:30:20;;;;;;;6.18;1.60;;;;;;;20.13;35.58;100745.94;16116938;19;129357;-56
2023/12/22 18:35:42;;;;;;;5.93;1.17;;;;;;;20.24;35.69;100744.94;16114715;19;129623;-51
2023/12/22 18:41:04;;;;;;;7.65;3.28;;;;;;;20.30;35.88;100770.81;16109629;19;130613;-56
2023/12/22 18:46:26;;;;;;;5.90;2.42;;;;;;;20.39;35.52;100768.44;16116099;19;129839;-52
2023/12/22 18:51:48;;;;;;;16.88;3.03;;;;;;;20.43;35.85;100772.38;16111315;19;129654;-55
2023/12/22 18:57:10;;;;;;;12.88;3.50;;;;;;;20.47;36.05;100773.50;16112301;19;131231;-52
2023/12/22 19:02:32;;;;;;;19.15;3.33;;;;;;;20.46;36.02;100785.72;16107315;19;130853;-48
2023/12/22 19:08:15;;;;;;;17.45;2.70;;;;;;;20.43;35.70;100798.19;16105573;19;129692;-53
2023/12/22 19:13:37;;;;;;;16.25;2.58;;;;;;;20.39;35.98;100801.78;16112494;19;130904;-53
2023/12/22 19:18:59;;;;;;;17.48;3.15;;;;;;;20.35;35.72;100811.72;16113822;19;129210;-56
2023/12/22 19:24:21;;;;;;;16.02;3.03;;;;;;;20.31;35.92;100819.75;16107134;19;132567;-52
2023/12/22 19:29:43;;;;;;;14.90;2.53;;;;;;;20.26;36.03;100826.06;16110520;19;130035;-53
2023/12/22 19:35:06;;;;;;;18.67;2.70;;;;;;;20.22;36.29;100836.03;16107950;19;129863;-51
2023/12/22 19:40:28;;;;;;;10.65;2.25;;;;;;;20.19;36.09;100841.25;16106791;19;130658;-57
2023/12/22 19:45:54;;;;;;;11.70;2.13;;;;;;;20.16;36.19;100837.06;16107597;19;129534;-52
2023/12/22 19:51:17;;;;;;;9.60;2.55;;;;;;;20.13;36.36;100857.03;16107090;19;133697;-51
2023/12/22 19:56:39;;;;;;;12.93;2.00;;;;;;;20.10;36.38;100854.75;16105826;19;131070;-54
2023/12/22 20:02:01;;;;;;;11.27;2.10;;;;;;;20.09;36.37;100869.72;16109852;19;131165;-54
2023/12/22 20:07:24;;;;;;;11.95;2.05;;;;;;;20.07;36.38;100860.81;16109159;19;131060;-53
2023/12/22 20:12:45;;;;;;;6.72;1.58;;;;;;;20.08;36.08;100876.38;16101094;19;131102;-52
2023/12/22 20:18:07;;;;;;;5.38;1.70;;;;;;;20.11;36.18;100878.66;16107281;19;131153;-54
2023/12/22 20:23:29;;;;;;;10.68;2.00;;;;;;;20.14;36.53;100886.47;16104370;19;130395;-53
2023/12/22 20:28:51;;;;;;;16.85;2.15;;;;;;;20.19;36.62;100892.09;16105041;19;134134;-51
2023/12/22 20:34:13;;;;;;;7.05;1.58;;;;;;;20.25;36.11;100902.19;16105090;19;129580;-54
2023/12/22 20:39:35;;;;;;;9.73;1.48;;;;;;;20.29;36.14;100906.13;16107544;19;130011;-54
2023/12/22 20:44:57;;;;;;;7.05;1.70;;;;;;;20.35;36.11;100917.28;16107082;19;129731;-49
2023/12/22 20:50:19;;;;;;;9.15;1.90;;;;;;;20.38;36.41;100908.44;16099553;19;130543;-55
2023/12/22 20:55:41;;;;;;;12.32;1.50;;;;;;;20.39;36.25;100913.72;16108298;19;130588;-58
2023/12/22 21:01:08;;;;;;;8.25;1.50;;;;;;;20.40;36.32;100928.47;16105943;19;129842;-55
2023/12/22 21:06:30;;;;;;;6.38;1.30;;;;;;;20.39;36.16;100940.69;16120179;19;130171;-54
2023/12/22 21:11:52;;;;;;;5.68;1.77;;;;;;;20.36;36.26;100941.19;16117967;19;129625;-56
2023/12/22 21:17:14;;;;;;;5.82;1.60;;;;;;;20.29;36.03;100931.13;16116463;19;129388;-57
2023/12/22 21:22:36;;;;;;;10.80;2.35;;;;;;;20.20;36.60;100938.22;16118507;19;129680;-61
2023/12/22 21:27:59;;;;;;;7.55;1.65;;;;;;;20.10;36.41;100949.19;16113850;19;132297;-54
2023/12/22 21:33:21;;;;;;;6.90;1.67;;;;;;;19.99;36.59;100960.16;16107730;19;129851;-62
2023/12/22 21:38:43;;;;;;;14.73;2.25;;;;;;;19.88;36.73;100958.28;16115847;19;131720;-66
2023/12/22 21:44:05;;;;;;;9.55;1.58;;;;;;;19.79;36.75;100968.13;16116297;19;130340;-64
2023/12/22 21:49:27;;;;;;;27.13;2.10;;;;;;;19.65;36.60;100976.81;16116290;19;130230;-64
2023/12/22 21:54:50;;;;;;;8.60;1.48;;;;;;;19.53;37.02;100965.78;16107417;19;130912;-57
2023/12/22 22:00:12;;;;;;;7.88;1.92;;;;;;;19.44;36.88;100985.88;16112478;19;131603;-53
2023/12/22 22:05:35;;;;;;;6.85;1.77;;;;;;;19.33;37.18;100973.75;16112752;19;130897;-56
2023/12/22 22:10:57;;;;;;;9.93;1.88;;;;;;;19.20;36.71;100980.44;16109015;19;130230;-61
2023/12/22 22:16:19;;;;;;;10.60;1.75;;;;;;;19.08;37.39;100988.78;16107646;19;130253;-53
2023/12/22 22:21:41;;;;;;;5.35;1.40;;;;;;;18.99;37.20;101007.75;16113681;19;130225;-58
2023/12/22 22:27:04;;;;;;;7.55;1.75;;;;;;;18.90;37.49;101009.22;16113521;19;129577;-50
2023/12/22 22:32:27;;;;;;;5.53;1.38;;;;;;;18.81;37.48;101010.72;16111136;19;130097;-53
2023/12/22 22:37:49;;;;;;;7.40;1.75;;;;;;;18.73;37.23;101017.47;16112769;19;130701;-60
2023/12/22 22:43:11;;;;;;;5.55;1.27;;;;;;;18.65;37.25;101015.94;16113087;19;129893;-52
2023/12/22 22:48:33;;;;;;;8.48;1.67;;;;;;;18.57;37.48;101032.94;16118764;19;129564;-54
2023/12/22 22:53:56;;;;;;;7.68;1.60;;;;;;;18.51;37.47;101047.75;16113837;19;129847;-62
2023/12/22 22:59:18;;;;;;;6.60;1.50;;;;;;;18.45;37.83;101069.81;16108484;19;129616;-61
2023/12/22 23:04:40;;;;;;;7.82;1.83;;;;;;;18.38;37.50;101057.97;16108334;19;129594;-57
2023/12/22 23:10:03;;;;;;;6.55;1.38;;;;;;;18.33;37.80;101066.19;16108894;19;129473;-60
2023/12/22 23:15:25;;;;;;;5.13;1.50;;;;;;;18.27;38.04;101069.88;16109672;19;129446;-58
2023/12/22 23:20:47;;;;;;;6.15;1.52;;;;;;;18.22;37.88;101061.44;16108172;19;131192;-50
2023/12/22 23:26:09;;;;;;;2.97;1.13;;;;;;;18.19;38.05;101064.72;16110507;19;132043;-53
2023/12/22 23:31:31;;;;;;;5.22;1.52;;;;;;;18.15;37.75;101069.91;16105939;19;129599;-54
2023/12/22 23:36:53;;;;;;;7.15;1.75;;;;;;;18.10;37.91;101067.81;16110303;19;129732;-57
2023/12/22 23:42:15;;;;;;;5.45;1.40;;;;;;;18.07;38.18;101053.63;16110102;19;131744;-54
2023/12/22 23:47:37;;;;;;;7.70;1.88;;;;;;;18.04;38.08;101077.09;16110586;19;129666;-59
2023/12/22 23:52:59;;;;;;;7.10;1.88;;;;;;;17.99;38.11;101083.34;16104948;19;130172;-54
2023/12/22 23:58:21;;;;;;;11.98;1.48;;;;;;;17.97;38.04;101084.69;16109177;19;129487;-54
